Wakefield, United Kingdom
Current Conditions -  °F | °C
As of 1:20 PM on Friday 28 Nov 2014 (Local Time) from EGNM Reporting Station
Drizzle Drizzle  
Wind Chill: 44°   Ceiling: 100
Heat Index: 48°   Visibility: 0.56mi
Dew Point: 48°   Wind: 9mph
Humidity: 100%   Direction: 80°E
Pressure: 29.71"   Gusts: NA
Location:  53.68°N, 1.5°W
Report Text: EGNM 281320Z 08008KT 0900 R14/P1500 -DZ FG BKN001 OVC002 09/09 Q1006
Loading
Personal Weather Stations






























Interactive Weather Map New forecast layout! Learn more

10-Day Weather Forecast

Advertisements
Track Severe Weather on mobile